Ernst Oldendorff — 9HA3962 — position and weather

sailwx.info

Track history (hours):
 
Tides and Currents Weather Stations Pressure Air Temp Water Temp Dewpoint Dewpoint Depression Visibility Wind Speed Wind Dir Waves Ship Positions

Ernst Oldendorff

Last reported at 2018-May-21 15:37 UTC. Time now 2018-May-22 09:58 UTC.
Position N 31°05' E 122°29'.

Length 180 m; draft 7.2 m.

Type: Cargo ship. MMSI: 256606000.

Date/timePositionNaut miles runAvg speedWind from/ knotsBaromVisibWave heightAir tempDewpointWater temp
2018-May-21 15:37N 31°05' E 122°29'1 9.7
2018-May-21 15:30N 31°05' E 122°28'3 5.0
2018-May-21 15:00N 31°06' E 122°25'5 9.9
2018-May-21 14:30N 31°06' E 122°19'913.8
2018-May-21 13:53N 31°10' E 122°11'512.8
2018-May-21 13:30N 31°13' E 122°06'713.4
2018-May-21 13:00N 31°15' E 121°59'612.6
2018-May-21 12:30N 31°16' E 121°51'612.5
2018-May-21 12:00N 31°19' E 121°45'1411.4
2018-May-21 10:44N 31°26' E 121°30'2 6.8
2018-May-21 10:28N 31°27' E 121°28'511.1
2018-May-21 10:00N 31°31' E 121°24'611.6
2018-May-21 09:30N 31°34' E 121°19'611.8
2018-May-21 09:00N 31°38' E 121°14'712.2
2018-May-21 08:28N 31°42' E 121°08'3311.1
2018-May-21 05:30N 32°00' E 120°35'612.8
2018-May-21 05:00N 32°02' E 120°28'  
2018-May-16 15:23N 32°00' E 120°23'4 8.6
2018-May-16 14:58N 32°02' E 120°27'6 9.3
2018-May-16 14:20N 32°01' E 120°34'25 7.6
2018-May-16 11:01N 31°47' E 120°59'010.7
2018-May-16 10:59N 31°47' E 120°59'510.0
2018-May-16 10:29N 31°45' E 121°05'4 9.1
2018-May-16 10:00N 31°42' E 121°08'4 8.4
2018-May-16 09:30N 31°40' E 121°12'1 2.6
2018-May-16 08:57N 31°39' E 121°14'0 0.1
2018-May-16 08:27N 31°39' E 121°14'0 0.2
2018-May-16 07:57N 31°40' E 121°14'0 0.1
2018-May-16 07:15N 31°40' E 121°14'0 0.2
2018-May-16 06:57N 31°40' E 121°14'0 0.0
2018-May-16 06:30N 31°40' E 121°14'0 0.0
2018-May-16 06:00N 31°40' E 121°14'0 0.0
2018-May-16 05:27N 31°40' E 121°14'0 0.0
2018-May-16 04:57N 31°40' E 121°14'0 0.0
2018-May-16 04:27N 31°40' E 121°14'0 0.1
2018-May-16 04:00N 31°40' E 121°14'0 0.1
2018-May-16 03:30N 31°40' E 121°14'0 0.3
2018-May-16 03:00N 31°39' E 121°14'0 0.1
2018-May-16 02:27N 31°39' E 121°14'0 0.0
2018-May-16 01:57N 31°39' E 121°14'0 0.0
2018-May-16 01:27N 31°39' E 121°14'0 0.0
2018-May-16 01:00N 31°39' E 121°14'0 0.1
2018-May-16 00:27N 31°39' E 121°14'0 0.0
2018-May-15 23:54N 31°39' E 121°14'0 0.2
2018-May-15 23:30N 31°39' E 121°14'2 3.9
2018-May-15 23:00N 31°40' E 121°12'3 5.8
2018-May-15 22:29N 31°42' E 121°09'0 0.0
2018-May-15 21:56N 31°42' E 121°09'0 0.0
2018-May-15 21:26N 31°42' E 121°09'0 0.0
2018-May-15 20:50N 31°42' E 121°09'0 0.0
2018-May-15 20:26N 31°42' E 121°09'0 0.0
2018-May-15 19:56N 31°42' E 121°09'0 0.0
2018-May-15 19:20N 31°42' E 121°09'0 0.0
2018-May-15 18:56N 31°42' E 121°09'0 0.0
2018-May-15 18:26N 31°42' E 121°09'0 0.0
2018-May-15 17:59N 31°42' E 121°09'0 0.0
2018-May-15 17:20N 31°42' E 121°09'0 0.0
2018-May-15 16:59N 31°42' E 121°09'0 0.0
2018-May-15 16:26N 31°42' E 121°09'0 0.0
2018-May-15 15:56N 31°42' E 121°09'0 0.0
2018-May-15 15:29N 31°42' E 121°09'0 0.0
2018-May-15 14:56N 31°42' E 121°09'0 0.0
2018-May-15 14:20N 31°42' E 121°09'0 0.0
2018-May-15 13:53N 31°42' E 121°09'0 0.0
2018-May-15 13:26N 31°42' E 121°09'0 0.0
2018-May-15 12:56N 31°42' E 121°09'0 0.0
2018-May-15 12:26N 31°42' E 121°09'0 0.0
2018-May-15 11:50N 31°42' E 121°09'0 0.0
2018-May-15 11:26N 31°42' E 121°09'0 0.0
2018-May-15 10:56N 31°42' E 121°09'0 0.0
2018-May-15 10:26N 31°42' E 121°09'0 0.0
2018-May-15 09:56N 31°42' E 121°09'0 0.0
2018-May-15 08:53N 31°42' E 121°09'0 0.0
2018-May-15 08:20N 31°42' E 121°09'0 0.0
2018-May-15 07:53N 31°42' E 121°09'0 0.0
2018-May-15 07:14N 31°42' E 121°09'0 0.0
2018-May-15 06:59N 31°42' E 121°09'0 0.0
2018-May-15 06:29N 31°42' E 121°09'0 0.0
2018-May-15 05:59N 31°42' E 121°09'0 0.0
2018-May-15 05:14N 31°42' E 121°09'0 0.0
2018-May-15 04:56N 31°42' E 121°09'0 0.0
2018-May-15 04:26N 31°42' E 121°09'0 0.0
2018-May-15 03:50N 31°42' E 121°09'0 0.0
2018-May-15 03:26N 31°42' E 121°09'0 0.0
2018-May-15 02:59N 31°42' E 121°09'0 0.0
2018-May-15 02:29N 31°42' E 121°09'0 0.0
2018-May-15 01:59N 31°42' E 121°09'0 0.0
2018-May-15 01:20N 31°42' E 121°09'0 0.0
2018-May-15 00:56N 31°42' E 121°09'0 0.0
2018-May-15 00:26N 31°42' E 121°09'0 0.0
2018-May-14 23:56N 31°42' E 121°09'0 0.0
2018-May-14 23:26N 31°42' E 121°09'0 0.0
2018-May-14 22:59N 31°42' E 121°09'0 0.0
2018-May-14 22:26N 31°42' E 121°09'0 0.0
2018-May-14 21:56N 31°42' E 121°09'0 0.0
2018-May-14 21:20N 31°42' E 121°09'0 0.0
2018-May-14 20:56N 31°42' E 121°09'0 0.0
2018-May-14 20:20N 31°42' E 121°09'0 0.0
2018-May-14 19:56N 31°42' E 121°09'0 0.0
2018-May-14 19:29N 31°42' E 121°09'0 0.0
2018-May-14 18:56N 31°42' E 121°09'0 0.0
2018-May-14 18:29N 31°42' E 121°09'0 0.0
2018-May-14 17:53N 31°42' E 121°09'0 0.0
2018-May-14 17:20N 31°42' E 121°09'0 0.0
2018-May-14 16:59N 31°42' E 121°09'0 0.0
2018-May-14 16:26N 31°42' E 121°09'0 0.0
2018-May-14 15:14N 31°42' E 121°09'0 0.0
2018-May-14 14:56N 31°42' E 121°09'0 0.0
2018-May-14 14:26N 31°42' E 121°09'0 0.0
2018-May-14 13:59N 31°42' E 121°09'0 0.0
2018-May-14 13:17N 31°42' E 121°09'0 0.0
2018-May-14 12:50N 31°42' E 121°09'0 0.0
2018-May-14 12:29N 31°42' E 121°09'0 0.0
2018-May-14 11:47N 31°42' E 121°09'0 0.0
2018-May-14 11:20N 31°42' E 121°09'0 0.0
2018-May-14 10:50N 31°42' E 121°09'0 0.0
2018-May-14 10:29N 31°42' E 121°09'0 0.0
2018-May-14 09:38N 31°42' E 121°09'0 0.0
2018-May-14 09:20N 31°42' E 121°09'0 0.0
2018-May-14 08:50N 31°42' E 121°09'0 0.0
2018-May-14 08:23N 31°42' E 121°09'0 0.0
2018-May-14 07:53N 31°42' E 121°09'0 0.0
2018-May-14 07:02N 31°42' E 121°09'0 0.0
2018-May-14 06:56N 31°42' E 121°09'0 0.0
2018-May-14 06:29N 31°42' E 121°09'0 0.0
2018-May-14 05:59N 31°42' E 121°09'0 0.0
2018-May-14 05:20N 31°42' E 121°09'0 0.0
2018-May-14 04:56N 31°42' E 121°09'0 0.0
2018-May-14 04:29N 31°42' E 121°09'0 0.0
2018-May-14 03:50N 31°42' E 121°09'0 0.0
2018-May-14 03:26N 31°42' E 121°09'0 0.0
2018-May-14 02:56N 31°42' E 121°09'0 0.0
2018-May-14 02:26N 31°42' E 121°09'0 0.0
2018-May-14 01:59N 31°42' E 121°09'0 0.0
2018-May-14 01:29N 31°42' E 121°09'0 0.0
2018-May-14 00:50N 31°42' E 121°09'0 0.0
2018-May-14 00:26N 31°42' E 121°09'0 0.0
2018-May-13 23:59N 31°42' E 121°09'0 0.0
2018-May-13 23:29N 31°42' E 121°09'0 0.0
2018-May-13 22:50N 31°42' E 121°09'0 0.0
2018-May-13 22:26N 31°42' E 121°09'0 0.0
2018-May-13 21:56N 31°42' E 121°09'0 0.0
2018-May-13 21:26N 31°42' E 121°09'0 0.0
2018-May-13 20:41N 31°42' E 121°09'0 0.0
2018-May-13 20:26N 31°42' E 121°09'0 0.0
2018-May-13 19:56N 31°42' E 121°09'0 0.0
2018-May-13 19:11N 31°42' E 121°09'0 0.0
2018-May-13 18:59N 31°42' E 121°09'0 0.0
2018-May-13 18:20N 31°42' E 121°09'0 0.0
2018-May-13 17:44N 31°42' E 121°09'0 0.0
2018-May-13 17:14N 31°42' E 121°09'0 0.0
2018-May-13 16:50N 31°42' E 121°09'0 0.0
2018-May-13 16:26N 31°42' E 121°09'0 0.0
2018-May-13 15:53N 31°42' E 121°09'0 0.0
2018-May-13 15:26N 31°42' E 121°09'0 0.0
2018-May-13 14:56N 31°42' E 121°09'0 0.0
2018-May-13 14:29N 31°42' E 121°09'0 0.0
2018-May-13 13:50N 31°42' E 121°09'0 0.0
2018-May-13 12:50N 31°42' E 121°09'0 0.0
2018-May-13 12:20N 31°42' E 121°09'0 0.0
2018-May-13 11:56N 31°42' E 121°09'0 0.0
2018-May-13 11:26N 31°42' E 121°09'0 0.0
2018-May-13 10:56N 31°42' E 121°09'0 0.0
2018-May-13 10:26N 31°42' E 121°09'0 0.0
2018-May-13 09:56N 31°42' E 121°09'0 0.0
2018-May-13 09:29N 31°42' E 121°09'0 0.0
2018-May-13 08:59N 31°42' E 121°09'0 0.0
2018-May-13 08:20N 31°42' E 121°09'0 0.0
2018-May-13 07:59N 31°42' E 121°09'0 0.0
2018-May-13 07:26N 31°42' E 121°09'0 0.0
2018-May-13 06:59N 31°42' E 121°09'0 0.0
2018-May-13 06:29N 31°42' E 121°09'0 0.0
2018-May-13 05:35N 31°42' E 121°09'0 0.0
2018-May-13 05:26N 31°42' E 121°09'0 0.0
2018-May-13 04:59N 31°42' E 121°09'0 0.0
2018-May-13 04:29N 31°42' E 121°09'0 0.0
2018-May-13 03:38N 31°42' E 121°09'0 0.0
2018-May-13 03:26N 31°42' E 121°09'0 0.0
2018-May-13 03:00N 31°42' E 121°09'0 0.0
2018-May-13 02:08N 31°42' E 121°09'0 0.0
2018-May-13 01:56N 31°42' E 121°09'0 0.0
2018-May-13 01:29N 31°42' E 121°09'0 0.0
2018-May-13 00:59N 31°42' E 121°09'0 0.0
2018-May-13 00:20N 31°42' E 121°09'0 0.0
2018-May-12 23:59N 31°42' E 121°09'0 0.0
2018-May-12 23:20N 31°42' E 121°09'0 0.0
2018-May-12 22:56N 31°42' E 121°09'0 0.0
2018-May-12 22:20N 31°42' E 121°09'0 0.0
2018-May-12 21:53N 31°42' E 121°09'0 0.0
2018-May-12 21:14N 31°42' E 121°09'0 0.0
2018-May-12 20:44N 31°42' E 121°09'0 0.0
2018-May-12 20:26N 31°42' E 121°09'0 0.0
2018-May-12 19:59N 31°42' E 121°09'0 0.0
2018-May-12 19:29N 31°42' E 121°09'0 0.0
2018-May-12 18:38N 31°42' E 121°09'0 0.0
2018-May-12 18:08N 31°42' E 121°09'0 0.0
2018-May-12 17:56N 31°42' E 121°09'0 0.0
2018-May-12 17:23N 31°42' E 121°09'0 0.0
2018-May-12 16:59N 31°42' E 121°09'0 0.0
2018-May-12 15:50N 31°42' E 121°09'0 0.0
2018-May-12 15:26N 31°42' E 121°09'0 0.0
2018-May-12 14:32N 31°42' E 121°09'0 0.0
2018-May-12 14:29N 31°42' E 121°09'0 0.0
2018-May-12 13:56N 31°42' E 121°09'0 0.0
2018-May-12 13:26N 31°42' E 121°09'0 0.0
2018-May-12 12:44N 31°42' E 121°09'0 0.0
2018-May-12 12:26N 31°42' E 121°09'0 0.0
2018-May-12 11:56N 31°42' E 121°09'0 0.0
2018-May-12 11:23N 31°42' E 121°09'0 0.0
2018-May-12 10:53N 31°42' E 121°09'0 0.0
2018-May-12 10:29N 31°42' E 121°09'0 0.0
2018-May-12 09:50N 31°42' E 121°09'0 0.0
2018-May-12 09:29N 31°42' E 121°09'0 0.0
2018-May-12 08:56N 31°42' E 121°09'0 0.0
2018-May-12 08:14N 31°42' E 121°09'0 0.0
2018-May-12 07:56N 31°42' E 121°09'0 0.0
2018-May-12 07:26N 31°42' E 121°09'0 0.0
2018-May-12 06:56N 31°42' E 121°09'0 0.0
2018-May-12 06:29N 31°42' E 121°09'0 0.0
2018-May-12 05:44N 31°42' E 121°09'0 0.0
2018-May-12 05:29N 31°42' E 121°09'0 0.0
2018-May-12 04:59N 31°42' E 121°09'0 0.0
2018-May-12 04:26N 31°42' E 121°09'0 0.0
2018-May-12 03:59N 31°42' E 121°09'0 0.0
2018-May-12 03:26N 31°42' E 121°09'0 0.0
2018-May-12 02:50N 31°42' E 121°09'0 0.0
2018-May-12 02:26N 31°42' E 121°09'0 0.0
2018-May-12 01:59N 31°42' E 121°09'0 0.0
2018-May-12 01:20N 31°42' E 121°09'0 0.0
2018-May-12 00:50N 31°42' E 121°09'0 0.0
2018-May-12 00:26N 31°42' E 121°09'0 0.0
2018-May-11 23:56N 31°42' E 121°09'0 0.0
2018-May-11 23:20N 31°42' E 121°09'0 0.0
2018-May-11 22:59N 31°42' E 121°09'0 0.0
2018-May-11 22:29N 31°42' E 121°09'0 0.0
2018-May-11 21:53N 31°42' E 121°09'0 0.0
2018-May-11 21:26N 31°42' E 121°09'0 0.0
2018-May-11 20:50N 31°42' E 121°09'0 0.0
2018-May-11 20:23N 31°42' E 121°09'0 0.0
2018-May-11 19:56N 31°42' E 121°09'0 0.0
2018-May-11 19:20N 31°42' E 121°09'0 0.0
2018-May-11 18:56N 31°42' E 121°09'0 0.0
2018-May-11 18:26N 31°42' E 121°09'0 0.0
2018-May-11 17:56N 31°42' E 121°09'0 0.0
2018-May-11 17:29N 31°42' E 121°09'0 0.0
2018-May-11 16:56N 31°42' E 121°09'0 0.0
2018-May-11 16:29N 31°42' E 121°09'0 0.0
2018-May-11 15:59N 31°42' E 121°09'  
Track history (hours):
 
Tides and Currents Weather Stations Pressure Air Temp Water Temp Dewpoint Dewpoint Depression Visibility Wind Speed Wind Dir Waves Ship Positions

Ernst Oldendorff

Last reported at 2018-May-21 15:37 UTC. Time now 2018-May-22 09:58 UTC.
Position N 31°05' E 122°29'.

Length 180 m; draft 7.2 m.

Type: Cargo ship. MMSI: 256606000.

Date/timePositionNaut miles runAvg speedWind from/ knotsBaromVisibWave heightAir tempDewpointWater temp
2018-May-21 15:37N 31°05' E 122°29'1 9.7
2018-May-21 15:30N 31°05' E 122°28'3 5.0
2018-May-21 15:00N 31°06' E 122°25'5 9.9
2018-May-21 14:30N 31°06' E 122°19'913.8
2018-May-21 13:53N 31°10' E 122°11'512.8
2018-May-21 13:30N 31°13' E 122°06'713.4
2018-May-21 13:00N 31°15' E 121°59'612.6
2018-May-21 12:30N 31°16' E 121°51'612.5
2018-May-21 12:00N 31°19' E 121°45'1411.4
2018-May-21 10:44N 31°26' E 121°30'2 6.8
2018-May-21 10:28N 31°27' E 121°28'511.1
2018-May-21 10:00N 31°31' E 121°24'611.6
2018-May-21 09:30N 31°34' E 121°19'611.8
2018-May-21 09:00N 31°38' E 121°14'712.2
2018-May-21 08:28N 31°42' E 121°08'3311.1
2018-May-21 05:30N 32°00' E 120°35'612.8
2018-May-21 05:00N 32°02' E 120°28'  
2018-May-16 15:23N 32°00' E 120°23'4 8.6
2018-May-16 14:58N 32°02' E 120°27'6 9.3
2018-May-16 14:20N 32°01' E 120°34'25 7.6
2018-May-16 11:01N 31°47' E 120°59'010.7
2018-May-16 10:59N 31°47' E 120°59'510.0
2018-May-16 10:29N 31°45' E 121°05'4 9.1
2018-May-16 10:00N 31°42' E 121°08'4 8.4
2018-May-16 09:30N 31°40' E 121°12'1 2.6
2018-May-16 08:57N 31°39' E 121°14'0 0.1
2018-May-16 08:27N 31°39' E 121°14'0 0.2
2018-May-16 07:57N 31°40' E 121°14'0 0.1
2018-May-16 07:15N 31°40' E 121°14'0 0.2
2018-May-16 06:57N 31°40' E 121°14'0 0.0
2018-May-16 06:30N 31°40' E 121°14'0 0.0
2018-May-16 06:00N 31°40' E 121°14'0 0.0
2018-May-16 05:27N 31°40' E 121°14'0 0.0
2018-May-16 04:57N 31°40' E 121°14'0 0.0
2018-May-16 04:27N 31°40' E 121°14'0 0.1
2018-May-16 04:00N 31°40' E 121°14'0 0.1
2018-May-16 03:30N 31°40' E 121°14'0 0.3
2018-May-16 03:00N 31°39' E 121°14'0 0.1
2018-May-16 02:27N 31°39' E 121°14'0 0.0
2018-May-16 01:57N 31°39' E 121°14'0 0.0
2018-May-16 01:27N 31°39' E 121°14'0 0.0
2018-May-16 01:00N 31°39' E 121°14'0 0.1
2018-May-16 00:27N 31°39' E 121°14'0 0.0
2018-May-15 23:54N 31°39' E 121°14'0 0.2
2018-May-15 23:30N 31°39' E 121°14'2 3.9
2018-May-15 23:00N 31°40' E 121°12'3 5.8
2018-May-15 22:29N 31°42' E 121°09'0 0.0
2018-May-15 21:56N 31°42' E 121°09'0 0.0
2018-May-15 21:26N 31°42' E 121°09'0 0.0
2018-May-15 20:50N 31°42' E 121°09'0 0.0
2018-May-15 20:26N 31°42' E 121°09'0 0.0
2018-May-15 19:56N 31°42' E 121°09'0 0.0
2018-May-15 19:20N 31°42' E 121°09'0 0.0
2018-May-15 18:56N 31°42' E 121°09'0 0.0
2018-May-15 18:26N 31°42' E 121°09'0 0.0
2018-May-15 17:59N 31°42' E 121°09'0 0.0
2018-May-15 17:20N 31°42' E 121°09'0 0.0
2018-May-15 16:59N 31°42' E 121°09'0 0.0
2018-May-15 16:26N 31°42' E 121°09'0 0.0
2018-May-15 15:56N 31°42' E 121°09'0 0.0
2018-May-15 15:29N 31°42' E 121°09'0 0.0
2018-May-15 14:56N 31°42' E 121°09'0 0.0
2018-May-15 14:20N 31°42' E 121°09'0 0.0
2018-May-15 13:53N 31°42' E 121°09'0 0.0
2018-May-15 13:26N 31°42' E 121°09'0 0.0
2018-May-15 12:56N 31°42' E 121°09'0 0.0
2018-May-15 12:26N 31°42' E 121°09'0 0.0
2018-May-15 11:50N 31°42' E 121°09'0 0.0
2018-May-15 11:26N 31°42' E 121°09'0 0.0
2018-May-15 10:56N 31°42' E 121°09'0 0.0
2018-May-15 10:26N 31°42' E 121°09'0 0.0
2018-May-15 09:56N 31°42' E 121°09'0 0.0
2018-May-15 08:53N 31°42' E 121°09'0 0.0
2018-May-15 08:20N 31°42' E 121°09'0 0.0
2018-May-15 07:53N 31°42' E 121°09'0 0.0
2018-May-15 07:14N 31°42' E 121°09'0 0.0
2018-May-15 06:59N 31°42' E 121°09'0 0.0
2018-May-15 06:29N 31°42' E 121°09'0 0.0
2018-May-15 05:59N 31°42' E 121°09'0 0.0
2018-May-15 05:14N 31°42' E 121°09'0 0.0
2018-May-15 04:56N 31°42' E 121°09'0 0.0
2018-May-15 04:26N 31°42' E 121°09'0 0.0
2018-May-15 03:50N 31°42' E 121°09'0 0.0
2018-May-15 03:26N 31°42' E 121°09'0 0.0
2018-May-15 02:59N 31°42' E 121°09'0 0.0
2018-May-15 02:29N 31°42' E 121°09'0 0.0
2018-May-15 01:59N 31°42' E 121°09'0 0.0
2018-May-15 01:20N 31°42' E 121°09'0 0.0
2018-May-15 00:56N 31°42' E 121°09'0 0.0
2018-May-15 00:26N 31°42' E 121°09'0 0.0
2018-May-14 23:56N 31°42' E 121°09'0 0.0
2018-May-14 23:26N 31°42' E 121°09'0 0.0
2018-May-14 22:59N 31°42' E 121°09'0 0.0
2018-May-14 22:26N 31°42' E 121°09'0 0.0
2018-May-14 21:56N 31°42' E 121°09'0 0.0
2018-May-14 21:20N 31°42' E 121°09'0 0.0
2018-May-14 20:56N 31°42' E 121°09'0 0.0
2018-May-14 20:20N 31°42' E 121°09'0 0.0
2018-May-14 19:56N 31°42' E 121°09'0 0.0
2018-May-14 19:29N 31°42' E 121°09'0 0.0
2018-May-14 18:56N 31°42' E 121°09'0 0.0
2018-May-14 18:29N 31°42' E 121°09'0 0.0
2018-May-14 17:53N 31°42' E 121°09'0 0.0
2018-May-14 17:20N 31°42' E 121°09'0 0.0
2018-May-14 16:59N 31°42' E 121°09'0 0.0
2018-May-14 16:26N 31°42' E 121°09'0 0.0
2018-May-14 15:14N 31°42' E 121°09'0 0.0
2018-May-14 14:56N 31°42' E 121°09'0 0.0
2018-May-14 14:26N 31°42' E 121°09'0 0.0
2018-May-14 13:59N 31°42' E 121°09'0 0.0
2018-May-14 13:17N 31°42' E 121°09'0 0.0
2018-May-14 12:50N 31°42' E 121°09'0 0.0
2018-May-14 12:29N 31°42' E 121°09'0 0.0
2018-May-14 11:47N 31°42' E 121°09'0 0.0
2018-May-14 11:20N 31°42' E 121°09'0 0.0
2018-May-14 10:50N 31°42' E 121°09'0 0.0
2018-May-14 10:29N 31°42' E 121°09'0 0.0
2018-May-14 09:38N 31°42' E 121°09'0 0.0
2018-May-14 09:20N 31°42' E 121°09'0 0.0
2018-May-14 08:50N 31°42' E 121°09'0 0.0
2018-May-14 08:23N 31°42' E 121°09'0 0.0
2018-May-14 07:53N 31°42' E 121°09'0 0.0
2018-May-14 07:02N 31°42' E 121°09'0 0.0
2018-May-14 06:56N 31°42' E 121°09'0 0.0
2018-May-14 06:29N 31°42' E 121°09'0 0.0
2018-May-14 05:59N 31°42' E 121°09'0 0.0
2018-May-14 05:20N 31°42' E 121°09'0 0.0
2018-May-14 04:56N 31°42' E 121°09'0 0.0
2018-May-14 04:29N 31°42' E 121°09'0 0.0
2018-May-14 03:50N 31°42' E 121°09'0 0.0
2018-May-14 03:26N 31°42' E 121°09'0 0.0
2018-May-14 02:56N 31°42' E 121°09'0 0.0
2018-May-14 02:26N 31°42' E 121°09'0 0.0
2018-May-14 01:59N 31°42' E 121°09'0 0.0
2018-May-14 01:29N 31°42' E 121°09'0 0.0
2018-May-14 00:50N 31°42' E 121°09'0 0.0
2018-May-14 00:26N 31°42' E 121°09'0 0.0
2018-May-13 23:59N 31°42' E 121°09'0 0.0
2018-May-13 23:29N 31°42' E 121°09'0 0.0
2018-May-13 22:50N 31°42' E 121°09'0 0.0
2018-May-13 22:26N 31°42' E 121°09'0 0.0
2018-May-13 21:56N 31°42' E 121°09'0 0.0
2018-May-13 21:26N 31°42' E 121°09'0 0.0
2018-May-13 20:41N 31°42' E 121°09'0 0.0
2018-May-13 20:26N 31°42' E 121°09'0 0.0
2018-May-13 19:56N 31°42' E 121°09'0 0.0
2018-May-13 19:11N 31°42' E 121°09'0 0.0
2018-May-13 18:59N 31°42' E 121°09'0 0.0
2018-May-13 18:20N 31°42' E 121°09'0 0.0
2018-May-13 17:44N 31°42' E 121°09'0 0.0
2018-May-13 17:14N 31°42' E 121°09'0 0.0
2018-May-13 16:50N 31°42' E 121°09'0 0.0
2018-May-13 16:26N 31°42' E 121°09'0 0.0
2018-May-13 15:53N 31°42' E 121°09'0 0.0
2018-May-13 15:26N 31°42' E 121°09'0 0.0
2018-May-13 14:56N 31°42' E 121°09'0 0.0
2018-May-13 14:29N 31°42' E 121°09'0 0.0
2018-May-13 13:50N 31°42' E 121°09'0 0.0
2018-May-13 12:50N 31°42' E 121°09'0 0.0
2018-May-13 12:20N 31°42' E 121°09'0 0.0
2018-May-13 11:56N 31°42' E 121°09'0 0.0
2018-May-13 11:26N 31°42' E 121°09'0 0.0
2018-May-13 10:56N 31°42' E 121°09'0 0.0
2018-May-13 10:26N 31°42' E 121°09'0 0.0
2018-May-13 09:56N 31°42' E 121°09'0 0.0
2018-May-13 09:29N 31°42' E 121°09'0 0.0
2018-May-13 08:59N 31°42' E 121°09'0 0.0
2018-May-13 08:20N 31°42' E 121°09'0 0.0
2018-May-13 07:59N 31°42' E 121°09'0 0.0
2018-May-13 07:26N 31°42' E 121°09'0 0.0
2018-May-13 06:59N 31°42' E 121°09'0 0.0
2018-May-13 06:29N 31°42' E 121°09'0 0.0
2018-May-13 05:35N 31°42' E 121°09'0 0.0
2018-May-13 05:26N 31°42' E 121°09'0 0.0
2018-May-13 04:59N 31°42' E 121°09'0 0.0
2018-May-13 04:29N 31°42' E 121°09'0 0.0
2018-May-13 03:38N 31°42' E 121°09'0 0.0
2018-May-13 03:26N 31°42' E 121°09'0 0.0
2018-May-13 03:00N 31°42' E 121°09'0 0.0
2018-May-13 02:08N 31°42' E 121°09'0 0.0
2018-May-13 01:56N 31°42' E 121°09'0 0.0
2018-May-13 01:29N 31°42' E 121°09'0 0.0
2018-May-13 00:59N 31°42' E 121°09'0 0.0
2018-May-13 00:20N 31°42' E 121°09'0 0.0
2018-May-12 23:59N 31°42' E 121°09'0 0.0
2018-May-12 23:20N 31°42' E 121°09'0 0.0
2018-May-12 22:56N 31°42' E 121°09'0 0.0
2018-May-12 22:20N 31°42' E 121°09'0 0.0
2018-May-12 21:53N 31°42' E 121°09'0 0.0
2018-May-12 21:14N 31°42' E 121°09'0 0.0
2018-May-12 20:44N 31°42' E 121°09'0 0.0
2018-May-12 20:26N 31°42' E 121°09'0 0.0
2018-May-12 19:59N 31°42' E 121°09'0 0.0
2018-May-12 19:29N 31°42' E 121°09'0 0.0
2018-May-12 18:38N 31°42' E 121°09'0 0.0
2018-May-12 18:08N 31°42' E 121°09'0 0.0
2018-May-12 17:56N 31°42' E 121°09'0 0.0
2018-May-12 17:23N 31°42' E 121°09'0 0.0
2018-May-12 16:59N 31°42' E 121°09'0 0.0
2018-May-12 15:50N 31°42' E 121°09'0 0.0
2018-May-12 15:26N 31°42' E 121°09'0 0.0
2018-May-12 14:32N 31°42' E 121°09'0 0.0
2018-May-12 14:29N 31°42' E 121°09'0 0.0
2018-May-12 13:56N 31°42' E 121°09'0 0.0
2018-May-12 13:26N 31°42' E 121°09'0 0.0
2018-May-12 12:44N 31°42' E 121°09'0 0.0
2018-May-12 12:26N 31°42' E 121°09'0 0.0
2018-May-12 11:56N 31°42' E 121°09'0 0.0
2018-May-12 11:23N 31°42' E 121°09'0 0.0
2018-May-12 10:53N 31°42' E 121°09'0 0.0
2018-May-12 10:29N 31°42' E 121°09'0 0.0
2018-May-12 09:50N 31°42' E 121°09'0 0.0
2018-May-12 09:29N 31°42' E 121°09'0 0.0
2018-May-12 08:56N 31°42' E 121°09'0 0.0
2018-May-12 08:14N 31°42' E 121°09'0 0.0
2018-May-12 07:56N 31°42' E 121°09'0 0.0
2018-May-12 07:26N 31°42' E 121°09'0 0.0
2018-May-12 06:56N 31°42' E 121°09'0 0.0
2018-May-12 06:29N 31°42' E 121°09'0 0.0
2018-May-12 05:44N 31°42' E 121°09'0 0.0
2018-May-12 05:29N 31°42' E 121°09'0 0.0
2018-May-12 04:59N 31°42' E 121°09'0 0.0
2018-May-12 04:26N 31°42' E 121°09'0 0.0
2018-May-12 03:59N 31°42' E 121°09'0 0.0
2018-May-12 03:26N 31°42' E 121°09'0 0.0
2018-May-12 02:50N 31°42' E 121°09'0 0.0
2018-May-12 02:26N 31°42' E 121°09'0 0.0
2018-May-12 01:59N 31°42' E 121°09'0 0.0
2018-May-12 01:20N 31°42' E 121°09'0 0.0
2018-May-12 00:50N 31°42' E 121°09'0 0.0
2018-May-12 00:26N 31°42' E 121°09'0 0.0
2018-May-11 23:56N 31°42' E 121°09'0 0.0
2018-May-11 23:20N 31°42' E 121°09'0 0.0
2018-May-11 22:59N 31°42' E 121°09'0 0.0
2018-May-11 22:29N 31°42' E 121°09'0 0.0
2018-May-11 21:53N 31°42' E 121°09'0 0.0
2018-May-11 21:26N 31°42' E 121°09'0 0.0
2018-May-11 20:50N 31°42' E 121°09'0 0.0
2018-May-11 20:23N 31°42' E 121°09'0 0.0
2018-May-11 19:56N 31°42' E 121°09'0 0.0
2018-May-11 19:20N 31°42' E 121°09'0 0.0
2018-May-11 18:56N 31°42' E 121°09'0 0.0
2018-May-11 18:26N 31°42' E 121°09'0 0.0
2018-May-11 17:56N 31°42' E 121°09'0 0.0
2018-May-11 17:29N 31°42' E 121°09'0 0.0
2018-May-11 16:56N 31°42' E 121°09'0 0.0
2018-May-11 16:29N 31°42' E 121°09'0 0.0
2018-May-11 15:59N 31°42' E 121°09'  

Dump ship's entire track history